Time;durP1;ratioP1;P1;durP2;ratioP2;P2;SDS_P1;SDS_P2;PMS_P1;PMS_P2;Temp;Humidity;BMP_temperature;BMP_pressure;BME280_temperature;BME280_humidity;BME280_pressure;Samples;Min_cycle;Max_cycle;Signal;HPM_P1;HPM_P2
2022/09/18 00:01:36;;;;;;;1.88;0.57;;;;;;;;;;4559680;28;20103;-64
2022/09/18 00:03:46;;;;;;;1.42;0.45;;;;;;;;;;4559153;28;20060;-64
2022/09/18 00:05:57;;;;;;;1.90;0.60;;;;;;;;;;4557473;28;20074;-64
2022/09/18 00:08:07;;;;;;;1.45;0.50;;;;;;;;;;4559438;28;20103;-64
2022/09/18 00:10:18;;;;;;;1.05;0.40;;;;;;;;;;4558938;28;20795;-64
2022/09/18 00:12:28;;;;;;;1.52;0.47;;;;;;;;;;4560672;28;22433;-65
2022/09/18 00:14:39;;;;;;;2.25;0.50;;;;;;;;;;4561358;27;20040;-64
2022/09/18 00:16:49;;;;;;;1.25;0.50;;;;;;;;;;4558091;28;20687;-64
2022/09/18 00:19:00;;;;;;;1.00;0.43;;;;;;;;;;4559132;28;20024;-64
2022/09/18 00:21:17;;;;;;;0.98;0.40;;;;;;;;;;4562312;28;20443;-64
2022/09/18 00:23:28;;;;;;;2.13;0.50;;;;;;;;;;4558812;28;20075;-64
2022/09/18 00:25:40;;;;;;;1.17;0.30;;;;;;;;;;4561891;28;20128;-64
2022/09/18 00:27:50;;;;;;;0.70;0.30;;;;;;;;;;4559717;28;20647;-65
2022/09/18 00:30:01;;;;;;;0.60;0.30;;;;;;;;;;4557471;28;20058;-64
2022/09/18 00:32:11;;;;;;;0.70;0.38;;;;;;;;;;4567516;28;20513;-64
2022/09/18 00:34:22;;;;;;;1.63;0.47;;;;;;;;;;4559955;28;20085;-64
2022/09/18 00:36:34;;;;;;;1.58;0.40;;;;;;;;;;4559739;28;20714;-64
2022/09/18 00:38:45;;;;;;;1.33;0.45;;;;;;;;;;4559158;28;20118;-64
2022/09/18 00:40:56;;;;;;;0.77;0.20;;;;;;;;;;4560852;28;20032;-64
2022/09/18 00:43:22;;;;;;;1.10;0.40;;;;;;;;;;4559620;28;20678;-64
2022/09/18 00:45:32;;;;;;;1.10;0.38;;;;;;;;;;4559587;28;20075;-65
2022/09/18 00:47:46;;;;;;;1.00;0.30;;;;;;;;;;4567957;28;24101;-65
2022/09/18 00:50:02;;;;;;;0.70;0.30;;;;;;;;;;4558282;28;20035;-64
2022/09/18 00:52:14;;;;;;;0.88;0.40;;;;;;;;;;4559058;28;20091;-65
2022/09/18 00:54:29;;;;;;;0.63;0.40;;;;;;;;;;4562204;27;20168;-65
2022/09/18 00:56:40;;;;;;;1.83;0.52;;;;;;;;;;4551085;28;20032;-64
2022/09/18 00:58:50;;;;;;;1.05;0.40;;;;;;;;;;4557304;28;20399;-64
2022/09/18 01:01:01;;;;;;;3.20;0.60;;;;;;;;;;4527330;28;20041;-64
2022/09/18 01:03:12;;;;;;;1.77;0.32;;;;;;;;;;4558638;28;20040;-64
2022/09/18 01:05:29;;;;;;;1.60;0.35;;;;;;;;;;4564078;28;20482;-65
2022/09/18 01:07:58;;;;;;;0.80;0.30;;;;;;;;;;4562966;28;21660;-64
2022/09/18 01:10:17;;;;;;;1.05;0.40;;;;;;;;;;4562994;28;20110;-64
2022/09/18 01:12:49;;;;;;;1.50;0.40;;;;;;;;;;4571299;28;20893;-64
2022/09/18 01:15:07;;;;;;;1.08;0.47;;;;;;;;;;4571717;28;20035;-64
2022/09/18 01:18:09;;;;;;;0.57;0.40;;;;;;;;;;4560698;28;20764;-66
2022/09/18 01:20:46;;;;;;;0.47;0.40;;;;;;;;;;4534474;28;20036;-66
2022/09/18 01:23:20;;;;;;;0.60;0.30;;;;;;;;;;4564003;28;20041;-66
2022/09/18 01:25:55;;;;;;;0.60;0.30;;;;;;;;;;4563070;28;20175;-66
2022/09/18 01:28:18;;;;;;;1.50;0.60;;;;;;;;;;4564685;28;20143;-68
2022/09/18 01:30:30;;;;;;;0.70;0.38;;;;;;;;;;4561242;28;20587;-65
2022/09/18 01:32:54;;;;;;;2.08;0.50;;;;;;;;;;4546622;28;20128;-66
2022/09/18 01:35:20;;;;;;;1.70;0.40;;;;;;;;;;4544652;28;20079;-66
2022/09/18 01:37:52;;;;;;;1.05;0.40;;;;;;;;;;4560841;28;20968;-65
2022/09/18 01:40:23;;;;;;;0.93;0.50;;;;;;;;;;4553709;28;20692;-65
2022/09/18 01:42:35;;;;;;;2.00;0.55;;;;;;;;;;4555423;28;20599;-66
2022/09/18 01:44:46;;;;;;;1.10;0.40;;;;;;;;;;4563119;27;20035;-66
2022/09/18 01:46:58;;;;;;;1.52;0.70;;;;;;;;;;4563966;28;20037;-66
2022/09/18 01:49:15;;;;;;;1.27;0.52;;;;;;;;;;4570489;28;20039;-66
2022/09/18 01:51:38;;;;;;;1.95;0.68;;;;;;;;;;4562749;28;20154;-65
2022/09/18 01:53:53;;;;;;;1.33;0.50;;;;;;;;;;4564222;28;20032;-66
2022/09/18 01:56:07;;;;;;;0.50;0.50;;;;;;;;;;4543644;28;20145;-65
2022/09/18 01:58:22;;;;;;;1.48;0.70;;;;;;;;;;4570073;28;20841;-65
2022/09/18 02:00:36;;;;;;;0.95;0.65;;;;;;;;;;4563491;28;20028;-65
2022/09/18 02:02:55;;;;;;;1.40;0.60;;;;;;;;;;4542128;28;20033;-65
2022/09/18 02:05:17;;;;;;;1.60;0.68;;;;;;;;;;4552767;28;20045;-66
2022/09/18 02:07:36;;;;;;;1.10;0.60;;;;;;;;;;4554768;28;20690;-66
2022/09/18 02:09:46;;;;;;;1.52;0.70;;;;;;;;;;4562239;28;20082;-66
2022/09/18 02:11:59;;;;;;;0.77;0.60;;;;;;;;;;4562639;28;20089;-66
2022/09/18 02:14:18;;;;;;;0.70;0.65;;;;;;;;;;4545288;28;20038;-66
2022/09/18 02:16:47;;;;;;;1.38;0.55;;;;;;;;;;4547202;28;20033;-66
2022/09/18 02:19:04;;;;;;;1.85;0.70;;;;;;;;;;4548770;28;20849;-66
2022/09/18 02:21:17;;;;;;;1.63;0.73;;;;;;;;;;4561549;28;20032;-66
2022/09/18 02:23:28;;;;;;;1.17;0.60;;;;;;;;;;4560271;28;20099;-65
2022/09/18 02:25:46;;;;;;;1.15;0.60;;;;;;;;;;4558737;28;20579;-66
2022/09/18 02:27:57;;;;;;;1.75;0.90;;;;;;;;;;4552771;28;20074;-65
2022/09/18 02:30:08;;;;;;;1.35;0.60;;;;;;;;;;4570404;28;20533;-66
2022/09/18 02:32:19;;;;;;;1.88;0.70;;;;;;;;;;4559783;28;20033;-65
2022/09/18 02:34:30;;;;;;;1.65;0.70;;;;;;;;;;4563282;28;20482;-66
2022/09/18 02:37:00;;;;;;;2.00;0.73;;;;;;;;;;4561292;28;20033;-65
2022/09/18 02:39:39;;;;;;;1.83;0.80;;;;;;;;;;4558921;28;20135;-65
2022/09/18 02:42:28;;;;;;;0.85;0.60;;;;;;;;;;4552386;28;20036;-66
2022/09/18 02:44:50;;;;;;;1.08;0.65;;;;;;;;;;4562123;28;20083;-66
2022/09/18 02:47:25;;;;;;;1.60;0.85;;;;;;;;;;4552499;28;20040;-66
2022/09/18 02:49:42;;;;;;;1.63;0.77;;;;;;;;;;4562000;28;20028;-66
2022/09/18 02:51:57;;;;;;;2.05;0.95;;;;;;;;;;4560297;28;20074;-66
2022/09/18 02:54:19;;;;;;;1.67;0.90;;;;;;;;;;4552628;28;20032;-66
2022/09/18 02:56:43;;;;;;;1.70;0.80;;;;;;;;;;4552862;28;20135;-66
2022/09/18 02:59:05;;;;;;;2.30;0.80;;;;;;;;;;4558184;28;20036;-65
2022/09/18 03:01:16;;;;;;;1.42;0.90;;;;;;;;;;4568221;28;20028;-65
2022/09/18 03:03:30;;;;;;;2.13;0.88;;;;;;;;;;4559359;28;20036;-65
2022/09/18 03:05:45;;;;;;;2.17;1.00;;;;;;;;;;4562281;27;20028;-66
2022/09/18 03:07:55;;;;;;;1.45;0.80;;;;;;;;;;4559137;27;20473;-66
2022/09/18 03:10:07;;;;;;;1.55;1.00;;;;;;;;;;4556628;28;20109;-66
2022/09/18 03:12:18;;;;;;;1.00;0.80;;;;;;;;;;4557965;28;20035;-66
2022/09/18 03:14:31;;;;;;;1.58;0.80;;;;;;;;;;4559708;28;20028;-65
2022/09/18 03:16:42;;;;;;;1.50;0.80;;;;;;;;;;4560878;28;20084;-66
2022/09/18 03:18:52;;;;;;;1.88;0.90;;;;;;;;;;4562243;28;20051;-65
2022/09/18 03:21:03;;;;;;;1.95;1.00;;;;;;;;;;4545322;28;20036;-66
2022/09/18 03:23:15;;;;;;;2.40;1.00;;;;;;;;;;4561410;28;20513;-65
2022/09/18 03:25:27;;;;;;;2.20;0.90;;;;;;;;;;4562084;28;20028;-65
2022/09/18 03:27:37;;;;;;;1.70;0.93;;;;;;;;;;4561825;28;20036;-65
2022/09/18 03:29:48;;;;;;;1.52;0.90;;;;;;;;;;4568015;27;20032;-65
2022/09/18 03:32:01;;;;;;;2.50;1.10;;;;;;;;;;4568066;28;20664;-65
2022/09/18 03:34:12;;;;;;;2.15;1.10;;;;;;;;;;4545326;28;20074;-66
2022/09/18 03:36:22;;;;;;;2.05;1.02;;;;;;;;;;4575634;27;20079;-65
2022/09/18 03:38:36;;;;;;;2.03;1.17;;;;;;;;;;4563648;28;20238;-65
2022/09/18 03:40:47;;;;;;;2.17;1.30;;;;;;;;;;4560431;27;20067;-64
2022/09/18 03:42:57;;;;;;;2.30;1.38;;;;;;;;;;4561250;28;20131;-65
2022/09/18 03:45:10;;;;;;;2.22;1.27;;;;;;;;;;4561874;28;20082;-66
2022/09/18 03:47:20;;;;;;;2.08;1.40;;;;;;;;;;4551203;28;20033;-66
2022/09/18 03:49:31;;;;;;;2.17;1.20;;;;;;;;;;4562142;28;20036;-65
2022/09/18 03:51:42;;;;;;;1.80;1.20;;;;;;;;;;4568007;28;20048;-65
2022/09/18 03:53:53;;;;;;;2.83;1.55;;;;;;;;;;4550255;28;20497;-65
2022/09/18 03:56:26;;;;;;;2.50;1.52;;;;;;;;;;4552417;28;20051;-65
2022/09/18 03:58:54;;;;;;;2.53;1.40;;;;;;;;;;4561143;28;20036;-66
2022/09/18 04:01:17;;;;;;;1.63;1.23;;;;;;;;;;4546120;28;20075;-65
2022/09/18 04:03:48;;;;;;;2.75;1.40;;;;;;;;;;4559159;28;20036;-66
2022/09/18 04:06:13;;;;;;;1.92;1.30;;;;;;;;;;4559020;28;20218;-65
2022/09/18 04:08:43;;;;;;;3.33;1.40;;;;;;;;;;4557844;28;20071;-65
2022/09/18 04:11:06;;;;;;;3.17;1.42;;;;;;;;;;4559543;28;20031;-63
2022/09/18 04:13:17;;;;;;;2.45;1.30;;;;;;;;;;4561685;28;20980;-62
2022/09/18 04:15:27;;;;;;;1.75;1.13;;;;;;;;;;4544891;28;20033;-62
2022/09/18 04:17:38;;;;;;;3.22;1.50;;;;;;;;;;4558644;28;20159;-62
2022/09/18 04:19:53;;;;;;;1.95;1.15;;;;;;;;;;4551413;28;20036;-62
2022/09/18 04:22:04;;;;;;;3.03;1.48;;;;;;;;;;4560257;28;20028;-62
2022/09/18 04:24:14;;;;;;;1.75;1.10;;;;;;;;;;4575363;27;20047;-62
2022/09/18 04:26:25;;;;;;;2.72;1.38;;;;;;;;;;4559254;28;20542;-62
2022/09/18 04:28:39;;;;;;;1.50;1.20;;;;;;;;;;4557016;28;20206;-62
2022/09/18 04:30:50;;;;;;;2.72;1.40;;;;;;;;;;4559644;28;20047;-62
2022/09/18 04:33:01;;;;;;;2.80;1.40;;;;;;;;;;4559324;28;20035;-63
2022/09/18 04:35:11;;;;;;;2.58;1.30;;;;;;;;;;4556356;28;20140;-62
2022/09/18 04:37:22;;;;;;;1.92;1.30;;;;;;;;;;4560881;28;20037;-62
2022/09/18 04:39:35;;;;;;;2.97;1.30;;;;;;;;;;4568384;27;20035;-63
2022/09/18 04:41:49;;;;;;;1.73;1.10;;;;;;;;;;4570355;28;20032;-62
2022/09/18 04:44:00;;;;;;;1.92;1.02;;;;;;;;;;4565368;28;20829;-62
2022/09/18 04:46:12;;;;;;;2.28;1.20;;;;;;;;;;4560506;28;20028;-63
2022/09/18 04:48:23;;;;;;;2.65;1.10;;;;;;;;;;4559293;28;20033;-62
2022/09/18 04:50:34;;;;;;;1.80;1.20;;;;;;;;;;4554597;28;20411;-62
2022/09/18 04:52:53;;;;;;;2.13;1.00;;;;;;;;;;4564315;28;20358;-63
2022/09/18 04:55:04;;;;;;;1.85;1.20;;;;;;;;;;4562685;28;20043;-62
2022/09/18 04:57:15;;;;;;;2.13;1.17;;;;;;;;;;4561582;28;20091;-62
2022/09/18 04:59:30;;;;;;;2.20;1.10;;;;;;;;;;4563823;28;20101;-62
2022/09/18 05:01:41;;;;;;;1.50;1.00;;;;;;;;;;4570698;27;20040;-63
2022/09/18 05:03:54;;;;;;;1.38;0.90;;;;;;;;;;4562569;28;21633;-63
2022/09/18 05:06:11;;;;;;;1.55;0.98;;;;;;;;;;4562799;28;20040;-62
2022/09/18 05:08:22;;;;;;;2.25;1.05;;;;;;;;;;4562505;28;20444;-62
2022/09/18 05:10:34;;;;;;;1.58;1.20;;;;;;;;;;4560899;28;20024;-62
2022/09/18 05:12:48;;;;;;;2.53;1.02;;;;;;;;;;4561871;28;20037;-63
2022/09/18 05:14:59;;;;;;;1.77;1.00;;;;;;;;;;4562388;28;20029;-62
2022/09/18 05:17:10;;;;;;;1.63;1.02;;;;;;;;;;4569806;28;20040;-62
2022/09/18 05:19:22;;;;;;;1.88;0.95;;;;;;;;;;4560741;28;20036;-64
2022/09/18 05:21:32;;;;;;;1.90;1.02;;;;;;;;;;4561823;28;20032;-63
2022/09/18 05:23:44;;;;;;;1.90;1.10;;;;;;;;;;4542370;28;20085;-62
2022/09/18 05:25:54;;;;;;;2.03;1.00;;;;;;;;;;4569615;28;20028;-62
2022/09/18 05:28:05;;;;;;;1.25;0.98;;;;;;;;;;4552989;28;21016;-63
2022/09/18 05:30:22;;;;;;;;;;;;;;;;;;4577985;27;20102;-62
2022/09/18 05:32:37;;;;;;;2.35;0.98;;;;;;;;;;4547442;28;19917;-65
2022/09/18 05:34:48;;;;;;;2.83;0.93;;;;;;;;;;4569646;28;20036;-62
2022/09/18 05:36:59;;;;;;;3.30;1.10;;;;;;;;;;4563138;28;20046;-61
2022/09/18 05:39:10;;;;;;;2.08;0.90;;;;;;;;;;4563855;28;20036;-61
2022/09/18 05:41:21;;;;;;;1.20;1.00;;;;;;;;;;4561848;28;20043;-62
2022/09/18 05:43:31;;;;;;;2.13;1.17;;;;;;;;;;4564481;28;20048;-61
2022/09/18 05:45:42;;;;;;;1.70;1.00;;;;;;;;;;4562574;28;20335;-62
2022/09/18 05:48:04;;;;;;;2.40;1.00;;;;;;;;;;4562885;28;20028;-61
2022/09/18 05:50:16;;;;;;;2.90;1.10;;;;;;;;;;4577544;27;20074;-61
2022/09/18 05:52:26;;;;;;;2.35;1.10;;;;;;;;;;4569726;28;20036;-61
2022/09/18 05:54:37;;;;;;;2.92;1.15;;;;;;;;;;4547382;28;20407;-61
2022/09/18 05:56:47;;;;;;;1.88;1.05;;;;;;;;;;4559339;28;20040;-61
2022/09/18 05:58:58;;;;;;;2.25;1.08;;;;;;;;;;4564680;28;20115;-61
2022/09/18 06:01:09;;;;;;;1.63;1.02;;;;;;;;;;4562775;28;20128;-61
2022/09/18 06:03:37;;;;;;;1.65;0.90;;;;;;;;;;4549169;28;20033;-61
2022/09/18 06:05:51;;;;;;;1.60;1.10;;;;;;;;;;4552875;28;20071;-61
2022/09/18 06:08:03;;;;;;;2.58;1.17;;;;;;;;;;4569326;27;20102;-61
2022/09/18 06:10:14;;;;;;;2.03;1.02;;;;;;;;;;4559352;28;20106;-61
2022/09/18 06:12:25;;;;;;;2.85;1.50;;;;;;;;;;4560918;28;20020;-61
2022/09/18 06:14:35;;;;;;;2.22;1.10;;;;;;;;;;4546606;28;20392;-61
2022/09/18 06:16:46;;;;;;;1.25;1.10;;;;;;;;;;4563820;28;20039;-61
2022/09/18 06:18:57;;;;;;;2.13;1.15;;;;;;;;;;4559713;28;20044;-61
2022/09/18 06:21:08;;;;;;;2.28;1.20;;;;;;;;;;4551929;28;20040;-61
2022/09/18 06:23:20;;;;;;;1.45;1.10;;;;;;;;;;4544490;28;20031;-61
2022/09/18 06:25:39;;;;;;;2.17;1.13;;;;;;;;;;4545686;28;21116;-61
2022/09/18 06:27:57;;;;;;;1.40;1.00;;;;;;;;;;4562589;28;20266;-61
2022/09/18 06:30:08;;;;;;;1.90;1.27;;;;;;;;;;4568907;28;20807;-61
2022/09/18 06:32:19;;;;;;;2.50;1.10;;;;;;;;;;4563087;28;20036;-61
2022/09/18 06:34:30;;;;;;;1.40;1.00;;;;;;;;;;4569756;28;20028;-61
2022/09/18 06:36:45;;;;;;;1.00;0.90;;;;;;;;;;4569990;28;20040;-62
2022/09/18 06:39:05;;;;;;;1.25;0.77;;;;;;;;;;4563075;28;20085;-61
2022/09/18 06:41:16;;;;;;;1.30;1.00;;;;;;;;;;4552865;28;20059;-61
2022/09/18 06:43:35;;;;;;;1.00;0.77;;;;;;;;;;4564249;28;21179;-62
2022/09/18 06:46:09;;;;;;;1.20;0.88;;;;;;;;;;4558558;28;20032;-61
2022/09/18 06:48:28;;;;;;;1.15;0.85;;;;;;;;;;4559373;28;21380;-62
2022/09/18 06:50:38;;;;;;;1.17;0.70;;;;;;;;;;4576091;27;20019;-62
2022/09/18 06:52:49;;;;;;;1.38;0.70;;;;;;;;;;4561571;28;20029;-61
2022/09/18 06:55:00;;;;;;;1.20;0.80;;;;;;;;;;4563572;28;20114;-61
2022/09/18 06:57:19;;;;;;;1.55;0.68;;;;;;;;;;4563281;28;20040;-62
2022/09/18 06:59:29;;;;;;;1.00;0.70;;;;;;;;;;4561751;28;20040;-62
2022/09/18 07:01:40;;;;;;;1.38;0.60;;;;;;;;;;4551840;28;20119;-62
2022/09/18 07:04:05;;;;;;;1.38;0.60;;;;;;;;;;4560032;28;20798;-62
2022/09/18 07:06:21;;;;;;;0.95;0.60;;;;;;;;;;4569026;28;20040;-62
2022/09/18 07:08:34;;;;;;;0.75;0.63;;;;;;;;;;4551538;28;20619;-63
2022/09/18 07:11:00;;;;;;;1.20;0.52;;;;;;;;;;4561395;28;20035;-61
2022/09/18 07:13:11;;;;;;;0.65;0.52;;;;;;;;;;4552937;28;20032;-62
2022/09/18 07:15:28;;;;;;;1.05;0.60;;;;;;;;;;4553681;28;20102;-62
2022/09/18 07:17:38;;;;;;;0.90;0.50;;;;;;;;;;4543421;27;20090;-62
2022/09/18 07:19:49;;;;;;;0.95;0.70;;;;;;;;;;4562127;28;20644;-62
2022/09/18 07:22:01;;;;;;;1.58;0.50;;;;;;;;;;4564158;28;20119;-62
2022/09/18 07:24:15;;;;;;;1.27;0.70;;;;;;;;;;4561049;28;20028;-62
2022/09/18 07:26:27;;;;;;;0.77;0.40;;;;;;;;;;4563045;28;20046;-63
2022/09/18 07:28:37;;;;;;;0.65;0.50;;;;;;;;;;4558291;28;20052;-62
2022/09/18 07:31:14;;;;;;;0.90;0.50;;;;;;;;;;4555488;28;20047;-62
2022/09/18 07:33:26;;;;;;;0.70;0.50;;;;;;;;;;4575495;27;20551;-62
2022/09/18 07:35:36;;;;;;;0.80;0.60;;;;;;;;;;4559184;28;20507;-64
2022/09/18 07:37:47;;;;;;;1.23;0.50;;;;;;;;;;4561561;28;20042;-62
2022/09/18 07:40:06;;;;;;;1.23;0.80;;;;;;;;;;4562407;28;20036;-63
2022/09/18 07:42:35;;;;;;;1.02;0.70;;;;;;;;;;4558470;28;20569;-63
2022/09/18 07:44:46;;;;;;;1.70;0.70;;;;;;;;;;4560900;28;20029;-63
2022/09/18 07:46:58;;;;;;;1.08;0.77;;;;;;;;;;4559778;28;20127;-63
2022/09/18 07:49:09;;;;;;;1.13;0.70;;;;;;;;;;4562719;28;20472;-59
2022/09/18 07:51:20;;;;;;;0.70;0.55;;;;;;;;;;4559294;28;20032;-60
2022/09/18 07:53:32;;;;;;;2.00;0.70;;;;;;;;;;4551561;28;20024;-61
2022/09/18 07:55:46;;;;;;;1.27;0.55;;;;;;;;;;4551468;28;20062;-61
2022/09/18 07:57:59;;;;;;;1.10;0.70;;;;;;;;;;4568056;28;20052;-61
2022/09/18 08:00:33;;;;;;;1.30;0.75;;;;;;;;;;4558604;27;20032;-62
2022/09/18 08:02:44;;;;;;;1.07;0.60;;;;;;;;;;4560046;28;20039;-63
2022/09/18 08:05:04;;;;;;;0.85;0.60;;;;;;;;;;4567674;27;20123;-60
2022/09/18 08:07:31;;;;;;;1.13;0.60;;;;;;;;;;4560850;28;20024;-60
2022/09/18 08:09:51;;;;;;;0.93;0.70;;;;;;;;;;4562531;28;20773;-60
2022/09/18 08:12:24;;;;;;;0.88;0.70;;;;;;;;;;4559261;28;20658;-60
2022/09/18 08:14:54;;;;;;;1.10;0.60;;;;;;;;;;4562160;28;20572;-61
2022/09/18 08:17:44;;;;;;;2.60;0.85;;;;;;;;;;4563160;28;20040;-60
2022/09/18 08:20:10;;;;;;;1.08;0.60;;;;;;;;;;4556660;28;20051;-61
2022/09/18 08:22:28;;;;;;;1.52;0.88;;;;;;;;;;4554717;28;20055;-61
2022/09/18 08:24:40;;;;;;;1.58;0.80;;;;;;;;;;4560048;28;20144;-62
2022/09/18 08:26:52;;;;;;;1.13;0.70;;;;;;;;;;4564614;28;20035;-62
2022/09/18 08:29:04;;;;;;;1.50;1.00;;;;;;;;;;4561758;28;20032;-62
2022/09/18 08:31:33;;;;;;;0.98;0.90;;;;;;;;;;4564428;28;20092;-61
2022/09/18 08:33:43;;;;;;;1.40;1.00;;;;;;;;;;4571119;28;20118;-62
2022/09/18 08:35:54;;;;;;;1.80;1.10;;;;;;;;;;4560410;28;20039;-61
2022/09/18 08:38:10;;;;;;;1.50;1.27;;;;;;;;;;4564243;28;20036;-61
2022/09/18 08:40:58;;;;;;;2.28;1.00;;;;;;;;;;4561741;28;20358;-61
2022/09/18 08:43:39;;;;;;;1.90;1.30;;;;;;;;;;4571029;28;20040;-62
2022/09/18 08:46:01;;;;;;;1.85;1.38;;;;;;;;;;4564428;28;20086;-61
2022/09/18 08:48:16;;;;;;;1.52;1.25;;;;;;;;;;4564318;28;20036;-62
2022/09/18 08:50:34;;;;;;;1.58;1.17;;;;;;;;;;4547933;28;20036;-62
2022/09/18 08:52:48;;;;;;;2.03;1.50;;;;;;;;;;4571092;27;20138;-62
2022/09/18 08:55:24;;;;;;;1.70;1.50;;;;;;;;;;4562021;28;21399;-62
2022/09/18 08:57:46;;;;;;;2.30;1.30;;;;;;;;;;4561228;28;20537;-62
2022/09/18 09:00:00;;;;;;;1.38;1.13;;;;;;;;;;4546429;28;21344;-62
2022/09/18 09:02:25;;;;;;;1.25;1.02;;;;;;;;;;4553557;28;21275;-61
2022/09/18 09:04:36;;;;;;;1.33;1.10;;;;;;;;;;4554977;28;20036;-61
2022/09/18 09:07:06;;;;;;;1.77;1.00;;;;;;;;;;4561399;28;20037;-62
2022/09/18 09:09:42;;;;;;;1.35;1.02;;;;;;;;;;4570928;28;20040;-62
2022/09/18 09:11:54;;;;;;;1.02;0.93;;;;;;;;;;4561081;28;20085;-62
2022/09/18 09:14:09;;;;;;;1.35;1.00;;;;;;;;;;4546038;28;20086;-60
2022/09/18 09:16:38;;;;;;;1.90;0.88;;;;;;;;;;4564378;28;20057;-65
2022/09/18 09:19:01;;;;;;;1.30;1.02;;;;;;;;;;4561670;28;20032;-65
2022/09/18 09:21:23;;;;;;;0.77;0.77;;;;;;;;;;4546717;28;20171;-65
2022/09/18 09:24:16;;;;;;;1.70;1.10;;;;;;;;;;4554462;28;20071;-66
2022/09/18 09:26:48;;;;;;;1.52;1.00;;;;;;;;;;4530933;28;20051;-62
2022/09/18 09:29:17;;;;;;;1.30;0.95;;;;;;;;;;4564665;28;20062;-65
2022/09/18 09:31:50;;;;;;;1.75;0.90;;;;;;;;;;4563603;28;20040;-63
2022/09/18 09:34:15;;;;;;;1.10;1.00;;;;;;;;;;4563754;27;20118;-63
2022/09/18 09:36:36;;;;;;;1.42;0.95;;;;;;;;;;4580624;27;20720;-63
2022/09/18 09:39:05;;;;;;;1.13;1.00;;;;;;;;;;4563226;28;20036;-64
2022/09/18 09:41:32;;;;;;;1.38;0.80;;;;;;;;;;4553092;28;20032;-64
2022/09/18 09:43:56;;;;;;;1.25;1.00;;;;;;;;;;4559700;28;20121;-63
2022/09/18 09:46:40;;;;;;;1.90;0.88;;;;;;;;;;4561714;28;20043;-62
2022/09/18 09:49:10;;;;;;;1.00;0.80;;;;;;;;;;4562485;28;20040;-62
2022/09/18 09:51:25;;;;;;;1.48;0.60;;;;;;;;;;4565504;28;20035;-62
2022/09/18 09:53:36;;;;;;;0.50;0.40;;;;;;;;;;4563258;28;20029;-63
2022/09/18 09:56:29;;;;;;;0.85;0.35;;;;;;;;;;4561234;28;20051;-60
2022/09/18 09:58:52;;;;;;;0.52;0.45;;;;;;;;;;4516568;28;20071;-63
2022/09/18 10:01:20;;;;;;;0.30;0.30;;;;;;;;;;4553518;28;20040;-61
2022/09/18 10:03:53;;;;;;;0.35;0.30;;;;;;;;;;4564476;28;20082;-61
2022/09/18 10:06:30;;;;;;;0.20;0.20;;;;;;;;;;4561209;28;20593;-66
2022/09/18 10:08:43;;;;;;;1.17;0.40;;;;;;;;;;4570649;28;20036;-63
2022/09/18 10:10:59;;;;;;;0.38;0.20;;;;;;;;;;4560520;27;20028;-63
2022/09/18 10:13:15;;;;;;;0.82;0.25;;;;;;;;;;4555075;28;20036;-64
2022/09/18 10:15:40;;;;;;;0.25;0.15;;;;;;;;;;4536582;28;20039;-64
2022/09/18 10:18:40;;;;;;;0.22;0.10;;;;;;;;;;4548057;28;20075;-69
2022/09/18 10:20:56;;;;;;;0.17;0.10;;;;;;;;;;4563996;28;20064;-63
2022/09/18 10:23:17;;;;;;;0.40;0.10;;;;;;;;;;4544376;28;20091;-63
2022/09/18 10:25:38;;;;;;;0.20;0.10;;;;;;;;;;4536166;28;21264;-60
2022/09/18 10:27:49;;;;;;;0.17;0.17;;;;;;;;;;4569816;28;20047;-62
2022/09/18 10:29:59;;;;;;;0.63;0.10;;;;;;;;;;4564922;28;20094;-61
2022/09/18 10:32:37;;;;;;;0.10;0.10;;;;;;;;;;4548703;28;20036;-62
2022/09/18 10:34:58;;;;;;;0.52;0.17;;;;;;;;;;4561358;27;20430;-61
2022/09/18 10:37:26;;;;;;;0.70;0.30;;;;;;;;;;4545455;28;20038;-63
2022/09/18 10:39:51;;;;;;;0.60;0.20;;;;;;;;;;4569134;27;20032;-62
2022/09/18 10:42:06;;;;;;;0.30;0.10;;;;;;;;;;4562519;27;20090;-61
2022/09/18 10:44:20;;;;;;;0.30;0.20;;;;;;;;;;4542100;28;20111;-61
2022/09/18 10:46:34;;;;;;;0.20;0.15;;;;;;;;;;4569394;28;20795;-62
2022/09/18 10:48:46;;;;;;;0.70;0.30;;;;;;;;;;4543029;28;20112;-61
2022/09/18 10:51:01;;;;;;;0.15;0.10;;;;;;;;;;4562639;28;20115;-62
2022/09/18 10:53:28;;;;;;;0.85;0.13;;;;;;;;;;4554995;28;20086;-61
2022/09/18 10:55:47;;;;;;;1.23;0.30;;;;;;;;;;4560920;28;20040;-61
2022/09/18 10:58:14;;;;;;;0.73;0.20;;;;;;;;;;4563239;28;20186;-61
2022/09/18 11:00:33;;;;;;;0.22;0.10;;;;;;;;;;4560107;27;20064;-61
2022/09/18 11:02:44;;;;;;;;;;;;;;;;;;4576318;27;20442;-61
2022/09/18 11:04:55;;;;;;;0.60;0.28;;;;;;;;;;4576004;27;20022;-64
2022/09/18 11:07:10;;;;;;;0.25;0.20;;;;;;;;;;4561917;28;20139;-64
2022/09/18 11:09:45;;;;;;;1.10;0.20;;;;;;;;;;4543651;28;20033;-68
2022/09/18 11:11:57;;;;;;;0.25;0.20;;;;;;;;;;4569454;28;20767;-63
2022/09/18 11:14:24;;;;;;;1.08;0.22;;;;;;;;;;4560053;27;20033;-65
2022/09/18 11:16:45;;;;;;;0.35;0.10;;;;;;;;;;4544778;28;20052;-62
2022/09/18 11:19:34;;;;;;;0.10;0.10;;;;;;;;;;4552363;28;20044;-64
2022/09/18 11:21:54;;;;;;;0.30;0.25;;;;;;;;;;4569867;28;20577;-64
2022/09/18 11:24:16;;;;;;;0.20;0.20;;;;;;;;;;4546127;28;21002;-63
2022/09/18 11:26:28;;;;;;;0.43;0.20;;;;;;;;;;4566114;28;20028;-64
2022/09/18 11:28:41;;;;;;;0.30;0.20;;;;;;;;;;4553223;28;20039;-64
2022/09/18 11:31:10;;;;;;;0.45;0.35;;;;;;;;;;4547439;28;20588;-63
2022/09/18 11:33:27;;;;;;;0.40;0.28;;;;;;;;;;4563315;28;20849;-63
2022/09/18 11:35:50;;;;;;;0.20;0.20;;;;;;;;;;4552779;28;20338;-64
2022/09/18 11:38:06;;;;;;;0.20;0.20;;;;;;;;;;4554961;28;20143;-65
2022/09/18 11:40:41;;;;;;;0.98;0.10;;;;;;;;;;4536265;28;20290;-65
2022/09/18 11:42:53;;;;;;;0.17;0.10;;;;;;;;;;4546556;28;20138;-65
2022/09/18 11:45:16;;;;;;;0.35;0.20;;;;;;;;;;4550378;28;20032;-65
2022/09/18 11:47:35;;;;;;;0.40;0.10;;;;;;;;;;4569114;28;21329;-65
2022/09/18 11:49:50;;;;;;;0.32;0.20;;;;;;;;;;4569236;28;20024;-65
2022/09/18 11:52:15;;;;;;;0.68;0.20;;;;;;;;;;4552347;27;20037;-62
2022/09/18 11:54:36;;;;;;;0.47;0.30;;;;;;;;;;4510476;27;20068;-63
2022/09/18 11:56:50;;;;;;;0.30;0.30;;;;;;;;;;4537443;28;20605;-62
2022/09/18 11:59:13;;;;;;;1.42;0.30;;;;;;;;;;4526334;28;20053;-64
2022/09/18 12:01:42;;;;;;;0.57;0.20;;;;;;;;;;4540483;28;20793;-60
2022/09/18 12:03:58;;;;;;;1.10;0.35;;;;;;;;;;4561126;28;20879;-61
2022/09/18 12:06:31;;;;;;;0.60;0.50;;;;;;;;;;4560470;28;20036;-62
2022/09/18 12:09:08;;;;;;;0.47;0.47;;;;;;;;;;4508235;28;20091;-64
2022/09/18 12:11:49;;;;;;;0.75;0.30;;;;;;;;;;4532560;28;21365;-62
2022/09/18 12:14:17;;;;;;;0.63;0.40;;;;;;;;;;4543102;28;20152;-63
2022/09/18 12:16:58;;;;;;;0.35;0.28;;;;;;;;;;4567513;28;20535;-63
2022/09/18 12:19:29;;;;;;;0.30;0.20;;;;;;;;;;4550243;28;20068;-64
2022/09/18 12:21:58;;;;;;;0.30;0.20;;;;;;;;;;4550354;28;20037;-63
2022/09/18 12:24:14;;;;;;;0.38;0.30;;;;;;;;;;4556827;28;20131;-63
2022/09/18 12:26:37;;;;;;;0.10;0.10;;;;;;;;;;4550440;28;20039;-63
2022/09/18 12:28:58;;;;;;;0.52;0.30;;;;;;;;;;4540622;28;20072;-63
2022/09/18 12:31:17;;;;;;;0.35;0.10;;;;;;;;;;4559465;28;20043;-63
2022/09/18 12:33:38;;;;;;;0.50;0.20;;;;;;;;;;4562427;28;20042;-63
2022/09/18 12:36:10;;;;;;;0.47;0.20;;;;;;;;;;4557562;28;20867;-62
2022/09/18 12:38:36;;;;;;;0.32;0.15;;;;;;;;;;4558574;28;21003;-63
2022/09/18 12:41:17;;;;;;;0.30;0.10;;;;;;;;;;4558850;28;20544;-63
2022/09/18 12:43:42;;;;;;;0.35;0.20;;;;;;;;;;4547033;28;20545;-63
2022/09/18 12:46:06;;;;;;;0.20;0.10;;;;;;;;;;4544813;28;21027;-63
2022/09/18 12:48:38;;;;;;;0.73;0.20;;;;;;;;;;4549609;28;20048;-63
2022/09/18 12:51:24;;;;;;;0.55;0.20;;;;;;;;;;4561585;28;20886;-63
2022/09/18 12:54:08;;;;;;;0.20;0.20;;;;;;;;;;4526146;28;20751;-63
2022/09/18 12:56:27;;;;;;;0.95;0.30;;;;;;;;;;4559618;28;20076;-63
2022/09/18 12:58:46;;;;;;;0.50;0.20;;;;;;;;;;4567311;28;20737;-63
2022/09/18 13:01:02;;;;;;;1.02;0.30;;;;;;;;;;4561834;28;20028;-62
2022/09/18 13:03:30;;;;;;;0.20;0.20;;;;;;;;;;4565375;28;20522;-62
2022/09/18 13:05:53;;;;;;;0.63;0.20;;;;;;;;;;4563917;28;20995;-62
2022/09/18 13:08:27;;;;;;;0.20;0.20;;;;;;;;;;4563171;28;20028;-62
2022/09/18 13:10:41;;;;;;;1.25;0.20;;;;;;;;;;4562086;28;20029;-62
2022/09/18 13:13:01;;;;;;;0.30;0.20;;;;;;;;;;4563813;28;20033;-62
2022/09/18 13:15:19;;;;;;;0.30;0.13;;;;;;;;;;4562761;28;20021;-62
2022/09/18 13:17:36;;;;;;;1.45;0.30;;;;;;;;;;4563447;27;20050;-63
2022/09/18 13:19:52;;;;;;;0.20;0.20;;;;;;;;;;4565361;28;20032;-63
2022/09/18 13:22:05;;;;;;;0.75;0.30;;;;;;;;;;4564644;28;20024;-63
2022/09/18 13:24:19;;;;;;;0.82;0.47;;;;;;;;;;4560593;28;20042;-63
2022/09/18 13:26:32;;;;;;;0.50;0.30;;;;;;;;;;4543410;28;20047;-63
2022/09/18 13:28:43;;;;;;;0.60;0.32;;;;;;;;;;4564387;28;20074;-63
2022/09/18 13:31:13;;;;;;;0.73;0.30;;;;;;;;;;4563430;28;20529;-63
2022/09/18 13:33:25;;;;;;;0.52;0.30;;;;;;;;;;4566383;27;20028;-63
2022/09/18 13:35:36;;;;;;;1.10;0.40;;;;;;;;;;4562020;28;20029;-63
2022/09/18 13:37:47;;;;;;;1.02;0.30;;;;;;;;;;4565150;28;20139;-64
2022/09/18 13:40:00;;;;;;;0.70;0.63;;;;;;;;;;4564232;28;20570;-64
2022/09/18 13:42:10;;;;;;;1.83;0.60;;;;;;;;;;4562218;28;20040;-64
2022/09/18 13:44:26;;;;;;;1.00;0.80;;;;;;;;;;4562305;28;20029;-64
2022/09/18 13:46:38;;;;;;;0.87;0.70;;;;;;;;;;4546950;28;20037;-64
2022/09/18 13:48:54;;;;;;;0.60;0.50;;;;;;;;;;4559578;28;20039;-64
2022/09/18 13:51:26;;;;;;;1.20;0.50;;;;;;;;;;4553409;28;20052;-64